Time;durP1;ratioP1;P1;durP2;ratioP2;P2;SDS_P1;SDS_P2;PMS_P1;PMS_P2;Temp;Humidity;BMP_temperature;BMP_pressure;BME280_temperature;BME280_humidity;BME280_pressure;Samples;Min_cycle;Max_cycle;Signal;HPM_P1;HPM_P2
2023/06/02 00:02:06;;;;;;;7.25;5.07;;;16.30;78.70;;;;;;5074105;28;20025;-84
2023/06/02 00:04:31;;;;;;;7.85;4.85;;;16.30;78.70;;;;;;5073495;28;20096;-83
2023/06/02 00:07:03;;;;;;;7.47;4.88;;;16.40;78.80;;;;;;5072738;28;20094;-83
2023/06/02 00:09:35;;;;;;;7.28;4.70;;;16.30;78.70;;;;;;5073867;28;20028;-83
2023/06/02 00:12:01;;;;;;;7.53;5.28;;;16.30;78.70;;;;;;5072851;28;20064;-84
2023/06/02 00:14:26;;;;;;;8.95;5.72;;;16.30;78.70;;;;;;5073160;28;20074;-84
2023/06/02 00:16:53;;;;;;;8.02;5.25;;;16.30;78.70;;;;;;5094101;28;20447;-84
2023/06/02 00:19:20;;;;;;;9.18;5.40;;;16.30;78.70;;;;;;5095342;28;20028;-85
2023/06/02 00:21:45;;;;;;;8.38;5.55;;;16.30;78.70;;;;;;5093128;28;20031;-83
2023/06/02 00:24:11;;;;;;;8.52;5.28;;;16.30;78.70;;;;;;5095270;28;20024;-83
2023/06/02 00:26:37;;;;;;;8.65;5.35;;;16.30;78.70;;;;;;5095038;28;20477;-84
2023/06/02 00:29:02;;;;;;;7.80;4.82;;;16.30;78.70;;;;;;5092751;28;20028;-84
2023/06/02 00:31:28;;;;;;;7.45;5.30;;;16.30;78.70;;;;;;5093883;28;20563;-84
2023/06/02 00:33:53;;;;;;;8.57;5.22;;;16.30;78.70;;;;;;5094914;28;20028;-84
2023/06/02 00:36:19;;;;;;;7.30;4.97;;;16.30;78.70;;;;;;5095985;28;20099;-83
2023/06/02 00:38:44;;;;;;;7.45;4.93;;;16.30;78.70;;;;;;5096277;28;20311;-83
2023/06/02 00:41:10;;;;;;;9.60;5.68;;;16.30;78.70;;;;;;5097247;28;20117;-84
2023/06/02 00:43:35;;;;;;;7.35;4.43;;;16.20;78.60;;;;;;5097446;28;20031;-84
2023/06/02 00:46:01;;;;;;;7.18;4.60;;;16.30;78.60;;;;;;5094992;28;20073;-84
2023/06/02 00:48:26;;;;;;;7.60;4.88;;;16.30;78.60;;;;;;5096729;28;20028;-84
2023/06/02 00:50:52;;;;;;;6.93;4.50;;;16.30;78.50;;;;;;5096707;28;20028;-84
2023/06/02 00:53:18;;;;;;;8.10;4.72;;;16.40;78.50;;;;;;5095713;28;20477;-84
2023/06/02 00:55:43;;;;;;;6.88;4.25;;;16.40;78.40;;;;;;5095021;28;20028;-84
2023/06/02 00:58:13;;;;;;;8.65;4.75;;;16.40;78.50;;;;;;5094458;28;20114;-83
2023/06/02 01:00:42;;;;;;;8.20;5.30;;;16.40;78.30;;;;;;5094884;28;20546;-83
2023/06/02 01:03:08;;;;;;;7.13;4.30;;;16.40;78.30;;;;;;5095286;28;20039;-84
2023/06/02 01:08:56;;;;;;;7.03;4.68;;;16.40;78.20;;;;;;5081074;28;20027;-83
2023/06/02 01:11:22;;;;;;;6.88;3.85;;;16.50;78.30;;;;;;5073625;28;20024;-83
2023/06/02 01:13:48;;;;;;;7.60;4.72;;;16.40;78.10;;;;;;5073974;28;20035;-83
2023/06/02 01:16:14;;;;;;;7.28;4.72;;;16.40;78.30;;;;;;5075142;28;20040;-83
2023/06/02 01:18:45;;;;;;;6.80;4.43;;;16.40;78.40;;;;;;5074507;28;20024;-85
2023/06/02 01:21:21;;;;;;;7.03;4.25;;;16.40;78.40;;;;;;5087206;28;20080;-86
2023/06/02 01:23:49;;;;;;;8.32;5.72;;;16.40;78.60;;;;;;5086378;28;20102;-86
2023/06/02 01:26:15;;;;;;;8.10;5.00;;;16.40;78.60;;;;;;5084917;28;20036;-87
2023/06/02 01:28:40;;;;;;;7.70;5.05;;;16.30;78.60;;;;;;5084968;28;20045;-84
2023/06/02 01:31:29;;;;;;;8.75;5.10;;;16.30;78.60;;;;;;5084278;28;20026;-84
2023/06/02 01:34:01;;;;;;;8.30;5.10;;;16.30;78.70;;;;;;5085035;28;20025;-84
2023/06/02 01:36:29;;;;;;;8.88;5.28;;;16.30;78.70;;;;;;5082934;28;20095;-87
2023/06/02 01:38:56;;;;;;;8.90;5.35;;;16.20;78.60;;;;;;5083051;28;20107;-84
2023/06/02 01:41:25;;;;;;;8.27;5.47;;;16.30;78.70;;;;;;5082650;28;20033;-84
2023/06/02 01:43:51;;;;;;;8.77;5.38;;;16.30;78.70;;;;;;5082505;28;20079;-84
2023/06/02 01:46:17;;;;;;;8.13;5.05;;;16.30;78.70;;;;;;5083108;28;20036;-85
2023/06/02 01:48:43;;;;;;;7.88;5.10;;;16.30;78.70;;;;;;5081794;28;20489;-84
2023/06/02 01:51:08;;;;;;;8.52;5.07;;;16.30;78.70;;;;;;5083103;28;20017;-83
2023/06/02 01:53:34;;;;;;;9.20;4.95;;;16.30;78.70;;;;;;5081228;28;20020;-83
2023/06/02 01:56:00;;;;;;;7.93;5.22;;;16.30;78.70;;;;;;5082435;28;20028;-83
2023/06/02 01:58:25;;;;;;;7.75;5.18;;;16.30;78.70;;;;;;5079797;28;20025;-84
2023/06/02 02:00:54;;;;;;;8.50;5.05;;;16.20;79.10;;;;;;5075786;22;20091;-81
2023/06/02 02:03:19;;;;;;;8.38;5.03;;;16.30;78.60;;;;;;5029075;28;20022;-82
2023/06/02 02:05:45;;;;;;;8.82;5.28;;;16.30;78.60;;;;;;5028775;28;20399;-81
2023/06/02 02:08:12;;;;;;;8.18;4.97;;;16.20;78.60;;;;;;5028533;28;20506;-81
2023/06/02 02:10:37;;;;;;;7.20;4.80;;;16.20;78.60;;;;;;5028663;28;20033;-81
2023/06/02 02:13:03;;;;;;;8.57;5.07;;;16.20;78.60;;;;;;5012077;28;20022;-82
2023/06/02 02:15:28;;;;;;;9.45;5.80;;;16.20;78.50;;;;;;5013335;28;20036;-81
2023/06/02 02:17:56;;;;;;;8.45;5.30;;;16.20;78.50;;;;;;5012480;28;20026;-82
2023/06/02 02:20:22;;;;;;;7.20;4.88;;;16.20;78.50;;;;;;5012659;28;20396;-82
2023/06/02 02:22:47;;;;;;;8.35;5.35;;;16.20;78.50;;;;;;5012480;28;20022;-82
2023/06/02 02:25:14;;;;;;;9.45;5.55;;;16.20;78.50;;;;;;5012185;28;20562;-81
2023/06/02 02:27:40;;;;;;;6.75;4.38;;;16.20;78.50;;;;;;5012462;28;20022;-82
2023/06/02 02:30:06;;;;;;;7.75;4.50;;;16.30;78.50;;;;;;5012332;28;20029;-82
2023/06/02 02:32:35;;;;;;;7.63;4.38;;;16.30;78.50;;;;;;5012463;28;20095;-81
2023/06/02 02:35:01;;;;;;;7.93;4.60;;;16.30;78.40;;;;;;5013616;28;20036;-82
2023/06/02 02:37:27;;;;;;;7.10;4.45;;;16.30;78.20;;;;;;5012182;28;20508;-81
2023/06/02 02:39:53;;;;;;;8.60;4.65;;;16.30;78.20;;;;;;5012265;28;20285;-82
2023/06/02 02:42:18;;;;;;;7.75;4.35;;;16.30;78.20;;;;;;5012320;28;20032;-82
2023/06/02 02:44:44;;;;;;;8.88;4.15;;;16.30;78.10;;;;;;5013463;28;20498;-82
2023/06/02 02:47:09;;;;;;;9.05;4.10;;;16.40;78.00;;;;;;5011843;28;20076;-81
2023/06/02 02:49:34;;;;;;;7.93;4.22;;;16.40;78.00;;;;;;5012243;28;20033;-81
2023/06/02 02:52:00;;;;;;;7.95;4.78;;;16.40;77.90;;;;;;5012819;28;20022;-82
2023/06/02 02:54:26;;;;;;;8.00;4.65;;;16.40;77.90;;;;;;5013127;28;20569;-82
2023/06/02 02:56:52;;;;;;;8.93;4.60;;;16.40;77.90;;;;;;5011460;28;20018;-82
2023/06/02 02:59:17;;;;;;;8.32;5.13;;;16.40;78.00;;;;;;5011977;28;20080;-81
2023/06/02 03:01:46;;;;;;;7.45;4.30;;;16.30;78.10;;;;;;5011859;28;20038;-82
2023/06/02 03:04:13;;;;;;;7.90;5.10;;;16.30;78.20;;;;;;5012029;28;20084;-82
2023/06/02 03:06:40;;;;;;;7.95;4.78;;;16.30;78.30;;;;;;5011616;28;20492;-82
2023/06/02 03:09:08;;;;;;;8.77;5.15;;;16.30;78.20;;;;;;5011154;28;20030;-82
2023/06/02 03:11:33;;;;;;;7.85;4.75;;;16.30;78.30;;;;;;5012894;28;20403;-82
2023/06/02 03:13:59;;;;;;;9.40;5.22;;;16.30;78.30;;;;;;5011662;28;20022;-82
2023/06/02 03:16:25;;;;;;;7.68;4.93;;;16.20;78.30;;;;;;5011587;28;20087;-81
2023/06/02 03:18:50;;;;;;;9.20;5.05;;;16.20;78.30;;;;;;5011839;28;20026;-82
2023/06/02 03:21:17;;;;;;;9.18;5.28;;;16.20;78.40;;;;;;5011617;28;20022;-82
2023/06/02 03:23:43;;;;;;;8.48;5.57;;;16.20;78.40;;;;;;5011650;28;20049;-82
2023/06/02 03:26:10;;;;;;;6.85;4.93;;;16.20;78.40;;;;;;5011245;28;20036;-81
2023/06/02 03:28:36;;;;;;;7.28;4.78;;;16.20;78.40;;;;;;5011593;28;20112;-82
2023/06/02 03:31:01;;;;;;;7.65;4.70;;;16.20;78.40;;;;;;5011635;28;20542;-82
2023/06/02 03:33:27;;;;;;;7.63;4.78;;;16.20;78.40;;;;;;5011558;28;20029;-81
2023/06/02 03:35:52;;;;;;;8.15;5.00;;;16.20;78.50;;;;;;5011442;28;20121;-81
2023/06/02 03:38:18;;;;;;;8.52;4.97;;;16.20;78.40;;;;;;5011428;28;20052;-81
2023/06/02 03:40:44;;;;;;;8.85;4.95;;;16.20;78.40;;;;;;5011258;28;20053;-82
2023/06/02 03:43:10;;;;;;;7.35;4.72;;;16.20;78.40;;;;;;5012732;28;20076;-82
2023/06/02 03:45:35;;;;;;;8.32;4.95;;;16.20;78.40;;;;;;5011442;28;20026;-81
2023/06/02 03:48:00;;;;;;;8.77;4.72;;;16.20;78.40;;;;;;5011240;28;20058;-81
2023/06/02 03:50:26;;;;;;;7.22;4.40;;;16.20;78.40;;;;;;5011199;28;20476;-82
2023/06/02 03:52:52;;;;;;;9.60;5.38;;;16.20;78.40;;;;;;5011272;28;20034;-82
2023/06/02 03:55:18;;;;;;;7.55;4.70;;;16.10;78.30;;;;;;5011368;28;20488;-82
2023/06/02 03:57:44;;;;;;;8.85;5.40;;;16.20;78.30;;;;;;5011269;28;20113;-81
2023/06/02 04:00:11;;;;;;;7.38;4.88;;;16.20;78.30;;;;;;5012371;28;20534;-79
2023/06/02 04:02:36;;;;;;;8.18;4.45;;;16.20;78.40;;;;;;5010482;28;20026;-81
2023/06/02 04:05:03;;;;;;;7.00;4.72;;;16.20;78.30;;;;;;5005577;28;20046;-83
2023/06/02 04:07:28;;;;;;;9.30;4.93;;;16.20;78.40;;;;;;5011240;28;20021;-82
2023/06/02 04:09:54;;;;;;;7.70;5.03;;;16.20;78.30;;;;;;5013715;28;20040;-82
2023/06/02 04:12:20;;;;;;;7.63;4.78;;;16.20;78.30;;;;;;5012520;28;20073;-84
2023/06/02 04:14:45;;;;;;;8.75;4.28;;;16.20;78.30;;;;;;5012214;28;20026;-85
2023/06/02 04:17:11;;;;;;;7.25;4.60;;;16.20;78.20;;;;;;5012592;28;20058;-82
2023/06/02 04:19:37;;;;;;;7.05;4.05;;;16.20;78.10;;;;;;5014313;28;20581;-81
2023/06/02 04:22:03;;;;;;;7.82;4.43;;;16.20;78.00;;;;;;5013399;28;20415;-82
2023/06/02 04:24:29;;;;;;;8.50;4.55;;;16.30;78.00;;;;;;5011226;28;20030;-82
2023/06/02 04:26:54;;;;;;;8.40;4.40;;;16.30;78.00;;;;;;5008551;28;20037;-84
2023/06/02 04:29:20;;;;;;;7.20;4.18;;;16.30;77.90;;;;;;5013528;28;20100;-81
2023/06/02 04:31:49;;;;;;;7.40;4.07;;;16.30;77.90;;;;;;5012321;28;20025;-84
2023/06/02 04:34:15;;;;;;;8.02;4.35;;;16.30;77.80;;;;;;5011737;28;20360;-82
2023/06/02 04:36:41;;;;;;;7.28;4.18;;;16.40;77.80;;;;;;5012445;28;20076;-83
2023/06/02 04:39:07;;;;;;;7.35;3.75;;;16.30;77.70;;;;;;5011601;28;20029;-82
2023/06/02 04:41:34;;;;;;;7.50;4.32;;;16.30;77.70;;;;;;5013277;28;20037;-82
2023/06/02 04:44:00;;;;;;;7.53;4.63;;;16.30;77.80;;;;;;5011866;28;20032;-82
2023/06/02 04:46:28;;;;;;;7.03;4.30;;;16.30;77.80;;;;;;5011700;28;20026;-82
2023/06/02 04:48:54;;;;;;;7.63;4.20;;;16.30;77.90;;;;;;5012057;28;20427;-82
2023/06/02 04:51:25;;;;;;;7.20;4.25;;;16.20;77.90;;;;;;5007154;28;20037;-82
2023/06/02 04:53:50;;;;;;;8.63;5.00;;;16.20;78.10;;;;;;5005488;28;20018;-81
2023/06/02 04:56:16;;;;;;;8.82;5.10;;;16.20;77.90;;;;;;4992188;28;20037;-83
2023/06/02 04:58:41;;;;;;;8.00;4.88;;;16.20;78.00;;;;;;4992256;28;20030;-83
2023/06/02 05:01:07;;;;;;;10.20;5.13;;;16.20;78.00;;;;;;4991455;28;20476;-82
2023/06/02 05:03:32;;;;;;;7.68;4.90;;;16.20;78.00;;;;;;4993095;28;20046;-83
2023/06/02 05:05:58;;;;;;;8.73;4.65;;;16.20;78.10;;;;;;4995056;28;20034;-83
2023/06/02 05:08:23;;;;;;;10.05;4.60;;;16.20;78.50;;;;;;5000166;28;20037;-83
2023/06/02 05:10:49;;;;;;;7.80;4.30;;;16.20;78.10;;;;;;4991100;28;20023;-83
2023/06/02 05:13:16;;;;;;;7.90;4.95;;;16.20;78.10;;;;;;4991851;28;20026;-82
2023/06/02 05:15:41;;;;;;;8.20;4.60;;;16.20;78.10;;;;;;4991371;28;20106;-84
2023/06/02 05:18:07;;;;;;;7.13;4.28;;;16.20;78.10;;;;;;4991143;28;20030;-82
2023/06/02 05:20:33;;;;;;;7.50;4.85;;;16.20;78.10;;;;;;4991477;28;20500;-82
2023/06/02 05:22:58;;;;;;;8.57;5.05;;;16.10;78.00;;;;;;4991372;28;20049;-84
2023/06/02 05:25:24;;;;;;;9.48;4.95;;;16.20;78.00;;;;;;4991201;28;20026;-82
2023/06/02 05:27:49;;;;;;;8.07;4.53;;;16.20;78.00;;;;;;4991276;28;20026;-83
2023/06/02 05:30:15;;;;;;;8.57;4.97;;;16.20;78.10;;;;;;4992043;28;20038;-82
2023/06/02 05:32:40;;;;;;;8.40;4.78;;;16.20;78.00;;;;;;5007388;28;20045;-83
2023/06/02 05:35:06;;;;;;;8.05;3.90;;;16.20;78.00;;;;;;4992369;28;20113;-82
2023/06/02 05:37:32;;;;;;;8.80;4.72;;;16.20;78.10;;;;;;4990796;28;20034;-82
2023/06/02 05:39:57;;;;;;;10.10;4.50;;;16.20;78.00;;;;;;4991007;28;20049;-82
2023/06/02 05:42:24;;;;;;;6.50;4.60;;;16.20;78.00;;;;;;5007137;28;20034;-83
2023/06/02 05:44:49;;;;;;;7.70;4.28;;;16.20;78.00;;;;;;4991290;28;20034;-82
2023/06/02 05:47:15;;;;;;;7.45;4.50;;;16.10;77.90;;;;;;4990676;28;20038;-83
2023/06/02 05:49:40;;;;;;;7.70;4.07;;;16.10;77.90;;;;;;4992270;28;20023;-83
2023/06/02 05:52:06;;;;;;;7.90;5.07;;;16.20;78.00;;;;;;4990647;28;20023;-82
2023/06/02 05:54:32;;;;;;;7.40;4.20;;;16.20;78.00;;;;;;4990763;28;20029;-83
2023/06/02 05:56:57;;;;;;;7.32;4.18;;;16.20;78.00;;;;;;4990474;28;20030;-83
2023/06/02 05:59:23;;;;;;;7.47;4.25;;;16.20;77.90;;;;;;4990759;28;20081;-83
2023/06/02 06:01:48;;;;;;;8.13;4.80;;;16.20;77.90;;;;;;4990230;28;20129;-81
2023/06/02 06:04:14;;;;;;;6.07;4.10;;;16.20;77.80;;;;;;4990814;28;20037;-82
2023/06/02 06:06:39;;;;;;;8.35;4.40;;;16.20;77.70;;;;;;4989771;28;20035;-81
2023/06/02 06:09:05;;;;;;;7.15;4.32;;;16.30;77.70;;;;;;4990594;28;20640;-83
2023/06/02 06:11:31;;;;;;;7.45;3.90;;;16.20;77.70;;;;;;4991980;28;20026;-82
2023/06/02 06:13:56;;;;;;;7.10;4.35;;;16.30;77.70;;;;;;5006493;28;20026;-83
2023/06/02 06:16:22;;;;;;;6.78;3.65;;;16.30;77.60;;;;;;4990408;28;20113;-83
2023/06/02 06:18:47;;;;;;;7.10;3.60;;;16.30;77.60;;;;;;4990539;28;20029;-82
2023/06/02 06:21:13;;;;;;;6.57;3.63;;;16.30;77.60;;;;;;4990327;28;20033;-83
2023/06/02 06:23:39;;;;;;;6.15;3.25;;;16.30;77.60;;;;;;4991598;28;20030;-81
2023/06/02 06:26:04;;;;;;;6.72;3.10;;;16.30;77.60;;;;;;4990080;28;20019;-82
2023/06/02 06:28:30;;;;;;;7.10;3.15;;;16.30;77.60;;;;;;4990362;28;20237;-81
2023/06/02 06:30:55;;;;;;;8.32;3.42;;;16.30;77.60;;;;;;4989012;28;20114;-83
2023/06/02 06:33:21;;;;;;;6.28;3.60;;;16.30;77.60;;;;;;5006523;28;20073;-82
2023/06/02 06:35:46;;;;;;;6.22;3.13;;;16.30;77.80;;;;;;4990114;28;20113;-83
2023/06/02 06:38:11;;;;;;;6.82;3.28;;;16.30;77.80;;;;;;4991244;28;20034;-82
2023/06/02 06:40:37;;;;;;;7.28;3.10;;;16.30;77.90;;;;;;4990061;28;20030;-82
2023/06/02 06:43:03;;;;;;;7.53;3.60;;;16.20;77.80;;;;;;4990024;28;20696;-82
2023/06/02 06:45:28;;;;;;;7.43;3.60;;;16.20;77.80;;;;;;4990819;28;20034;-82
2023/06/02 06:47:53;;;;;;;7.65;3.83;;;16.20;77.90;;;;;;5005732;28;20057;-83
2023/06/02 06:50:19;;;;;;;6.35;3.17;;;16.20;77.90;;;;;;4990882;28;20076;-81
2023/06/02 06:52:46;;;;;;;6.78;3.58;;;16.20;77.80;;;;;;4991435;28;20026;-83
2023/06/02 06:55:12;;;;;;;7.93;3.70;;;16.20;77.80;;;;;;4989841;28;20030;-83
2023/06/02 06:57:38;;;;;;;7.28;3.42;;;16.20;77.80;;;;;;4989685;28;20682;-83
2023/06/02 07:00:05;;;;;;;7.07;3.55;;;16.20;77.80;;;;;;5005661;28;20247;-82
2023/06/02 07:02:31;;;;;;;8.13;3.60;;;16.20;77.80;;;;;;4989770;28;20060;-82
2023/06/02 07:04:56;;;;;;;6.75;3.72;;;16.20;77.80;;;;;;4989047;28;20031;-83
2023/06/02 07:07:23;;;;;;;7.75;3.80;;;16.20;77.80;;;;;;4990736;28;20037;-83
2023/06/02 07:09:48;;;;;;;6.68;3.50;;;16.20;77.80;;;;;;4989210;28;20026;-82
2023/06/02 07:12:14;;;;;;;7.15;3.60;;;16.30;77.90;;;;;;4989329;28;20480;-83
2023/06/02 07:14:39;;;;;;;6.78;3.55;;;16.30;77.90;;;;;;5011926;28;20036;-81
2023/06/02 07:17:05;;;;;;;7.50;4.20;;;16.20;77.80;;;;;;5001220;28;20030;-81
2023/06/02 07:19:30;;;;;;;7.13;3.55;;;16.30;77.80;;;;;;4995532;28;20030;-80
2023/06/02 07:22:04;;;;;;;8.00;3.47;;;16.20;77.80;;;;;;4994997;28;20041;-83
2023/06/02 07:24:29;;;;;;;7.68;3.80;;;16.20;77.50;;;;;;4989694;28;20027;-82
2023/06/02 07:26:57;;;;;;;6.53;3.47;;;16.30;77.60;;;;;;4988830;28;20053;-83
2023/06/02 07:29:23;;;;;;;7.50;3.70;;;16.30;77.50;;;;;;4989208;28;20033;-82
2023/06/02 07:31:48;;;;;;;8.60;3.30;;;16.30;77.50;;;;;;4989006;28;20030;-82
2023/06/02 07:34:14;;;;;;;7.05;3.30;;;16.20;77.30;;;;;;4990384;28;20031;-82
2023/06/02 07:36:39;;;;;;;6.72;3.35;;;16.30;77.50;;;;;;4989061;28;20030;-82
2023/06/02 07:39:05;;;;;;;6.45;3.38;;;16.30;77.50;;;;;;4988889;28;20092;-84
2023/06/02 07:41:30;;;;;;;8.75;4.07;;;16.30;77.50;;;;;;4988404;28;20030;-83
2023/06/02 07:43:57;;;;;;;9.35;3.92;;;16.30;77.60;;;;;;4988968;28;20400;-84
2023/06/02 07:46:23;;;;;;;7.95;4.15;;;16.30;77.60;;;;;;4988750;28;20041;-83
2023/06/02 07:48:48;;;;;;;8.13;4.30;;;16.30;77.50;;;;;;4987814;28;20018;-84
2023/06/02 07:51:14;;;;;;;7.88;3.70;;;16.30;77.40;;;;;;4988214;28;20121;-82
2023/06/02 07:53:39;;;;;;;8.55;4.13;;;16.30;77.30;;;;;;4988483;28;20023;-82
2023/06/02 07:56:05;;;;;;;7.53;3.88;;;16.30;77.30;;;;;;4989459;28;20416;-84
2023/06/02 07:58:30;;;;;;;8.63;3.45;;;16.40;77.30;;;;;;4988201;28;20076;-84
2023/06/02 08:00:56;;;;;;;6.85;3.70;;;16.40;77.30;;;;;;4987880;28;20841;-82
2023/06/02 08:03:21;;;;;;;7.60;3.58;;;16.40;77.30;;;;;;4988339;28;20053;-83
2023/06/02 08:05:47;;;;;;;8.88;3.70;;;16.40;77.30;;;;;;4988278;28;20767;-84
2023/06/02 08:08:12;;;;;;;6.85;3.22;;;16.40;77.20;;;;;;4987921;28;20028;-83
2023/06/02 08:10:38;;;;;;;7.45;3.80;;;16.40;77.20;;;;;;4988250;28;20018;-84
2023/06/02 08:13:03;;;;;;;9.07;3.97;;;16.40;77.20;;;;;;4989245;28;20089;-81
2023/06/02 08:15:29;;;;;;;7.07;3.38;;;16.40;77.30;;;;;;4988347;28;20473;-84
2023/06/02 08:17:54;;;;;;;8.73;4.03;;;16.40;77.30;;;;;;4987715;28;20053;-83
2023/06/02 08:20:20;;;;;;;8.35;3.60;;;16.40;77.40;;;;;;4989303;28;20024;-82
2023/06/02 08:22:46;;;;;;;6.47;3.42;;;16.30;77.90;;;;;;4988079;28;20121;-83
2023/06/02 08:25:15;;;;;;;7.70;3.92;;;16.30;77.60;;;;;;4988101;28;20057;-82
2023/06/02 08:27:44;;;;;;;7.90;3.90;;;16.30;77.60;;;;;;4987829;28;20125;-83
2023/06/02 08:30:11;;;;;;;7.78;3.80;;;16.30;77.60;;;;;;4987628;28;20037;-83
2023/06/02 08:32:37;;;;;;;6.95;3.50;;;16.30;77.60;;;;;;4987949;28;20046;-83
2023/06/02 08:35:03;;;;;;;7.80;3.70;;;16.30;77.60;;;;;;4987932;28;20440;-82
2023/06/02 08:37:29;;;;;;;9.55;3.92;;;16.30;77.60;;;;;;4987757;28;20029;-84
2023/06/02 08:39:55;;;;;;;7.20;3.60;;;16.30;77.60;;;;;;4987442;28;20068;-84
2023/06/02 08:42:22;;;;;;;7.88;3.90;;;16.20;77.50;;;;;;4987847;28;20073;-83
2023/06/02 08:44:48;;;;;;;7.55;3.65;;;16.20;77.50;;;;;;4987857;28;20026;-84
2023/06/02 08:47:14;;;;;;;6.20;3.28;;;16.30;77.50;;;;;;4987539;28;20041;-82
2023/06/02 08:49:43;;;;;;;8.15;3.42;;;16.30;77.50;;;;;;4987755;28;20444;-83
2023/06/02 08:52:11;;;;;;;8.23;4.20;;;16.30;77.50;;;;;;4987731;28;20062;-81
2023/06/02 08:54:39;;;;;;;8.32;3.65;;;16.30;78.10;;;;;;4990363;28;20026;-82
2023/06/02 08:57:05;;;;;;;7.10;3.83;;;16.30;77.60;;;;;;4991135;28;20056;-84
2023/06/02 08:59:31;;;;;;;6.47;3.53;;;16.30;77.60;;;;;;4991215;28;20830;-83
2023/06/02 09:01:58;;;;;;;5.85;3.28;;;16.30;77.70;;;;;;4991208;28;20038;-84
2023/06/02 09:04:24;;;;;;;7.95;4.20;;;16.30;77.60;;;;;;4990941;28;20030;-84
2023/06/02 09:07:12;;;;;;;7.63;3.80;;;16.30;77.60;;;;;;4991023;28;20026;-84
2023/06/02 09:09:42;;;;;;;7.75;3.65;;;16.30;77.60;;;;;;4991023;28;20034;-84
2023/06/02 09:12:08;;;;;;;6.93;3.60;;;16.30;77.60;;;;;;4990813;28;20027;-83
2023/06/02 09:14:35;;;;;;;7.50;4.10;;;16.30;77.70;;;;;;4991066;28;20030;-83
2023/06/02 09:17:01;;;;;;;7.43;3.78;;;16.30;77.70;;;;;;4990845;28;20652;-84
2023/06/02 09:19:26;;;;;;;7.60;3.70;;;16.30;77.70;;;;;;4990941;28;20080;-83
2023/06/02 09:22:07;;;;;;;6.43;3.45;;;16.30;77.80;;;;;;4990864;28;20141;-82
2023/06/02 09:24:32;;;;;;;7.05;3.70;;;16.30;77.70;;;;;;4990827;28;20030;-84
2023/06/02 09:26:58;;;;;;;6.32;3.65;;;16.30;77.70;;;;;;4990548;28;20448;-83
2023/06/02 09:29:24;;;;;;;7.40;3.90;;;16.30;77.60;;;;;;4990829;28;20455;-84
2023/06/02 09:31:52;;;;;;;6.65;3.42;;;16.30;77.70;;;;;;4991939;28;20076;-83
2023/06/02 09:34:20;;;;;;;7.55;4.03;;;16.30;77.60;;;;;;4990826;28;20041;-84
2023/06/02 09:36:51;;;;;;;6.15;3.78;;;16.40;78.10;;;;;;4990200;28;20089;-84
2023/06/02 09:39:43;;;;;;;7.90;3.90;;;16.40;77.50;;;;;;4990493;28;20117;-82
2023/06/02 09:42:14;;;;;;;7.03;3.80;;;16.40;77.40;;;;;;4990642;28;20728;-83
2023/06/02 09:44:40;;;;;;;6.45;3.53;;;16.40;77.40;;;;;;4990606;28;20073;-83
2023/06/02 09:47:23;;;;;;;8.38;4.18;;;16.50;77.40;;;;;;4991241;28;20039;-84
2023/06/02 09:49:48;;;;;;;6.78;3.53;;;16.50;77.30;;;;;;4991742;28;20054;-83
2023/06/02 09:52:15;;;;;;;7.72;4.53;;;16.50;77.30;;;;;;4990158;28;20022;-83
2023/06/02 09:54:45;;;;;;;8.48;4.38;;;16.50;77.30;;;;;;4991574;28;20085;-83
2023/06/02 09:57:12;;;;;;;7.78;4.00;;;16.50;77.30;;;;;;4990013;28;20039;-84
2023/06/02 09:59:39;;;;;;;8.55;4.38;;;16.50;77.20;;;;;;4989778;28;20096;-84
2023/06/02 10:02:05;;;;;;;7.20;3.60;;;16.50;77.20;;;;;;4989954;28;20046;-84
2023/06/02 10:04:30;;;;;;;6.53;3.53;;;16.50;77.10;;;;;;4989874;28;20023;-83
2023/06/02 10:07:37;;;;;;;6.63;3.58;;;16.50;77.00;;;;;;4989653;28;20034;-83
2023/06/02 10:10:28;;;;;;;7.65;3.67;;;16.50;77.00;;;;;;4949875;29;20027;-83
2023/06/02 10:13:25;;;;;;;7.53;3.67;;;16.60;77.00;;;;;;4942394;29;20486;-83
2023/06/02 10:16:17;;;;;;;7.55;3.70;;;16.60;76.70;;;;;;4984600;28;20039;-83
2023/06/02 10:19:11;;;;;;;6.75;3.63;;;16.60;76.70;;;;;;4991237;28;20121;-84
2023/06/02 10:22:02;;;;;;;7.32;3.63;;;16.60;76.60;;;;;;4989881;28;20040;-83
2023/06/02 10:24:49;;;;;;;7.53;4.13;;;16.60;76.70;;;;;;4989544;28;20034;-82
2023/06/02 10:27:33;;;;;;;7.13;3.75;;;16.60;76.90;;;;;;4990743;28;20104;-82
2023/06/02 10:29:59;;;;;;;6.32;3.75;;;16.60;76.70;;;;;;4990830;28;20030;-84
2023/06/02 10:32:27;;;;;;;6.28;3.58;;;16.70;76.80;;;;;;4989420;28;20680;-84
2023/06/02 10:34:56;;;;;;;6.90;3.72;;;16.70;76.70;;;;;;4989347;28;20508;-84
2023/06/02 10:37:23;;;;;;;6.85;3.70;;;16.60;76.60;;;;;;4989069;28;20034;-85
2023/06/02 10:39:52;;;;;;;6.85;3.63;;;16.70;76.70;;;;;;4989367;28;20031;-83
2023/06/02 10:42:20;;;;;;;7.22;3.90;;;16.80;76.60;;;;;;4989349;28;20061;-83
2023/06/02 10:44:47;;;;;;;7.30;3.45;;;16.80;76.50;;;;;;4989507;28;20037;-82
2023/06/02 10:47:18;;;;;;;7.10;3.50;;;16.80;76.50;;;;;;4988740;28;20026;-83
2023/06/02 10:50:06;;;;;;;;;;;16.80;76.40;;;;;;4989659;28;20116;-82
2023/06/02 10:52:34;;;;;;;6.97;4.10;;;16.80;76.40;;;;;;4990429;28;19909;-82
2023/06/02 10:55:12;;;;;;;7.35;3.92;;;16.80;76.40;;;;;;4990487;28;20476;-84
2023/06/02 10:58:01;;;;;;;7.20;3.60;;;16.80;76.50;;;;;;4989092;28;20026;-84
2023/06/02 11:00:32;;;;;;;6.57;3.70;;;16.80;76.60;;;;;;4988974;28;20026;-83
2023/06/02 11:02:59;;;;;;;6.85;3.90;;;16.80;76.60;;;;;;4988853;28;20054;-84
2023/06/02 11:05:25;;;;;;;8.05;4.15;;;16.80;76.50;;;;;;4988780;28;20034;-82
2023/06/02 11:10:42;;;;;;;6.57;3.70;;;16.90;76.40;;;;;;4989949;28;20030;-83
2023/06/02 11:13:08;;;;;;;7.03;3.58;;;16.90;76.30;;;;;;4988746;28;20145;-82
2023/06/02 11:15:34;;;;;;;6.15;3.45;;;16.90;76.20;;;;;;4988881;28;20113;-84
2023/06/02 11:18:01;;;;;;;8.00;3.88;;;16.90;76.20;;;;;;4988341;28;20093;-84
2023/06/02 11:20:35;;;;;;;6.35;3.60;;;17.00;76.20;;;;;;4988546;28;20026;-84
2023/06/02 11:23:05;;;;;;;7.10;3.90;;;17.00;76.20;;;;;;4988474;28;20384;-83
2023/06/02 11:25:31;;;;;;;6.50;3.70;;;17.00;76.20;;;;;;4988446;28;20096;-83
2023/06/02 11:27:56;;;;;;;8.15;3.60;;;17.00;76.20;;;;;;4988299;28;20133;-85
2023/06/02 11:30:22;;;;;;;6.53;3.53;;;16.90;76.20;;;;;;4988470;28;20110;-83
2023/06/02 11:32:49;;;;;;;6.35;3.75;;;16.90;76.40;;;;;;4989770;28;20093;-83
2023/06/02 11:35:19;;;;;;;6.30;3.63;;;16.90;76.20;;;;;;4988607;28;20218;-83
2023/06/02 11:38:02;;;;;;;6.68;3.63;;;17.00;76.10;;;;;;4988049;28;20034;-83
2023/06/02 11:40:29;;;;;;;6.28;3.63;;;17.00;76.00;;;;;;4988069;28;20033;-84
2023/06/02 11:42:55;;;;;;;6.80;3.90;;;17.00;75.90;;;;;;4988233;28;20510;-84
2023/06/02 11:45:25;;;;;;;6.80;3.50;;;17.00;75.90;;;;;;4988524;28;20035;-84
2023/06/02 11:48:05;;;;;;;7.03;3.90;;;17.00;75.90;;;;;;4987970;28;20057;-82
2023/06/02 11:50:31;;;;;;;7.95;3.92;;;17.00;75.80;;;;;;4988100;28;20444;-83
2023/06/02 11:52:57;;;;;;;7.63;3.70;;;17.00;76.00;;;;;;4989596;28;20080;-83
2023/06/02 11:55:32;;;;;;;6.40;3.70;;;17.00;76.10;;;;;;4988022;28;20022;-84
2023/06/02 11:58:20;;;;;;;6.90;3.85;;;17.00;76.20;;;;;;4988114;28;20026;-83
2023/06/02 12:00:46;;;;;;;6.72;3.83;;;16.90;76.30;;;;;;4987871;28;20039;-84
2023/06/02 12:03:12;;;;;;;6.90;4.00;;;16.90;76.30;;;;;;4988151;28;20492;-84
2023/06/02 12:05:42;;;;;;;6.07;3.83;;;16.90;76.20;;;;;;4988299;28;20038;-83
2023/06/02 12:08:11;;;;;;;6.20;3.75;;;16.90;76.30;;;;;;4989133;28;20034;-84
2023/06/02 12:10:38;;;;;;;7.07;3.97;;;16.90;76.40;;;;;;4987931;28;20033;-83
2023/06/02 12:13:04;;;;;;;7.30;3.80;;;16.90;76.40;;;;;;4988109;28;20040;-85
2023/06/02 12:15:33;;;;;;;7.20;3.95;;;16.90;76.40;;;;;;4988200;28;20022;-83
2023/06/02 12:18:06;;;;;;;6.90;3.90;;;16.90;76.50;;;;;;4987795;28;20034;-83
2023/06/02 12:20:42;;;;;;;7.57;4.07;;;16.90;76.50;;;;;;4987870;28;20054;-84
2023/06/02 12:23:11;;;;;;;7.07;4.15;;;16.90;76.60;;;;;;4987816;28;20037;-82
2023/06/02 12:25:37;;;;;;;6.75;4.15;;;16.90;76.70;;;;;;4987925;28;20034;-84
2023/06/02 12:28:07;;;;;;;7.82;4.47;;;16.90;76.70;;;;;;4988007;28;20023;-84
2023/06/02 12:30:33;;;;;;;8.43;4.07;;;16.90;76.70;;;;;;4991448;28;20551;-83
2023/06/02 12:33:06;;;;;;;6.78;4.15;;;16.90;76.80;;;;;;4991863;28;20118;-83
2023/06/02 12:35:31;;;;;;;7.28;4.25;;;16.90;76.90;;;;;;4991668;28;20022;-84
2023/06/02 12:37:57;;;;;;;7.68;4.60;;;16.80;76.80;;;;;;4991283;28;20025;-84
2023/06/02 12:40:23;;;;;;;7.00;4.25;;;16.90;76.80;;;;;;4991533;28;20054;-84
2023/06/02 12:42:48;;;;;;;6.65;4.13;;;16.90;76.90;;;;;;4991338;28;20496;-84
2023/06/02 12:45:14;;;;;;;6.72;3.92;;;16.80;76.80;;;;;;4992017;28;20427;-84
2023/06/02 12:47:39;;;;;;;7.50;4.30;;;16.80;76.90;;;;;;4990698;28;20057;-83
2023/06/02 12:50:07;;;;;;;6.75;4.43;;;16.80;76.80;;;;;;4991464;28;20494;-84
2023/06/02 12:52:33;;;;;;;7.28;4.25;;;16.80;76.90;;;;;;4992590;28;20033;-85
2023/06/02 12:54:59;;;;;;;7.10;4.55;;;16.70;76.90;;;;;;4991410;28;20026;-83
2023/06/02 12:57:26;;;;;;;7.05;3.72;;;16.80;76.90;;;;;;4990935;28;20566;-84